Time;durP1;ratioP1;P1;durP2;ratioP2;P2;SDS_P1;SDS_P2;PMS_P1;PMS_P2;Temp;Humidity;BMP_temperature;BMP_pressure;BME280_temperature;BME280_humidity;BME280_pressure;Samples;Min_cycle;Max_cycle;Signal;HPM_P1;HPM_P2
2023/08/05 00:00:57;;;;;;;7.45;3.92;;;15.40;99.90;;;;;;5082128;28;20116;-70
2023/08/05 00:03:23;;;;;;;6.45;3.20;;;15.30;99.90;;;;;;5084345;28;20036;-70
2023/08/05 00:05:49;;;;;;;8.38;3.58;;;15.30;99.90;;;;;;5085301;28;20044;-70
2023/08/05 00:08:14;;;;;;;12.70;4.07;;;15.30;99.90;;;;;;5068243;28;20693;-70
2023/08/05 00:10:45;;;;;;;9.45;3.42;;;15.30;99.90;;;;;;5085360;28;20060;-71
2023/08/05 00:13:12;;;;;;;10.18;3.38;;;15.30;99.90;;;;;;5080949;28;20056;-71
2023/08/05 00:15:38;;;;;;;9.30;3.20;;;15.30;99.90;;;;;;5065511;28;20131;-71
2023/08/05 00:18:04;;;;;;;8.27;3.75;;;15.30;99.90;;;;;;5064529;28;20033;-71
2023/08/05 00:20:29;;;;;;;6.05;3.30;;;15.20;99.90;;;;;;5069150;28;20047;-71
2023/08/05 00:22:55;;;;;;;8.02;3.50;;;15.20;99.90;;;;;;5084520;28;20079;-71
2023/08/05 00:25:21;;;;;;;11.60;3.60;;;15.20;99.90;;;;;;5084029;28;20083;-71
2023/08/05 00:27:47;;;;;;;8.73;3.17;;;15.20;99.90;;;;;;5068394;28;20396;-71
2023/08/05 00:30:13;;;;;;;8.25;3.50;;;15.20;99.90;;;;;;5067896;28;20138;-72
2023/08/05 00:32:39;;;;;;;8.18;3.30;;;15.20;99.90;;;;;;5082918;28;20028;-71
2023/08/05 00:35:06;;;;;;;8.88;3.60;;;15.20;99.90;;;;;;5082125;28;20085;-71
2023/08/05 00:37:33;;;;;;;11.50;3.97;;;15.20;99.90;;;;;;5083301;28;20560;-71
2023/08/05 00:39:59;;;;;;;8.32;3.53;;;15.20;99.90;;;;;;5085204;28;20048;-70
2023/08/05 00:42:28;;;;;;;9.07;3.55;;;15.20;99.90;;;;;;5082534;28;20052;-71
2023/08/05 00:44:54;;;;;;;9.98;3.75;;;15.20;99.90;;;;;;5079651;28;20050;-71
2023/08/05 00:47:20;;;;;;;9.38;3.72;;;15.20;99.90;;;;;;5065363;28;20062;-71
2023/08/05 00:49:49;;;;;;;6.95;3.50;;;15.10;99.90;;;;;;5085666;28;20138;-72
2023/08/05 00:52:17;;;;;;;8.82;3.53;;;15.10;99.90;;;;;;5082383;28;20539;-71
2023/08/05 00:54:43;;;;;;;9.85;3.53;;;15.10;99.90;;;;;;5079675;28;20044;-72
2023/08/05 00:57:12;;;;;;;8.98;3.70;;;15.10;99.90;;;;;;5085826;28;20040;-71
2023/08/05 00:59:39;;;;;;;9.25;3.70;;;14.90;99.90;;;;;;5082716;28;20037;-71
2023/08/05 01:02:06;;;;;;;9.68;3.65;;;15.10;99.90;;;;;;5083473;28;20039;-72
2023/08/05 01:04:33;;;;;;;11.88;4.50;;;15.10;99.90;;;;;;5084980;28;20036;-72
2023/08/05 01:06:59;;;;;;;8.10;4.03;;;15.10;99.90;;;;;;5084575;28;20114;-72
2023/08/05 01:09:25;;;;;;;9.60;3.85;;;15.00;99.90;;;;;;5086789;28;20043;-72
2023/08/05 01:11:51;;;;;;;8.82;3.85;;;15.00;99.90;;;;;;5085033;28;20036;-71
2023/08/05 01:14:17;;;;;;;10.27;4.30;;;14.90;99.90;;;;;;5085587;28;20602;-72
2023/08/05 01:16:43;;;;;;;9.88;3.70;;;14.90;99.90;;;;;;5085116;28;20040;-72
2023/08/05 01:19:18;;;;;;;11.27;3.67;;;14.90;99.90;;;;;;5085412;28;20115;-72
2023/08/05 01:22:18;;;;;;;8.45;3.88;;;14.90;99.90;;;;;;5064245;28;20062;-72
2023/08/05 01:25:08;;;;;;;7.43;3.22;;;14.80;99.90;;;;;;5079578;28;20039;-72
2023/08/05 01:27:35;;;;;;;9.82;4.15;;;14.80;99.90;;;;;;5066069;28;20094;-72
2023/08/05 01:30:00;;;;;;;10.10;3.95;;;14.80;99.90;;;;;;5085140;28;20454;-72
2023/08/05 01:32:27;;;;;;;9.57;3.90;;;14.80;99.90;;;;;;5085863;28;20039;-72
2023/08/05 01:34:54;;;;;;;7.22;3.65;;;14.80;99.90;;;;;;5084467;28;20047;-71
2023/08/05 01:37:20;;;;;;;8.60;4.28;;;14.70;99.90;;;;;;5085862;28;20605;-72
2023/08/05 01:39:45;;;;;;;10.77;3.88;;;14.70;99.90;;;;;;5068249;28;20044;-71
2023/08/05 01:42:11;;;;;;;7.25;3.40;;;14.60;99.90;;;;;;5064932;28;20510;-71
2023/08/05 01:44:37;;;;;;;9.82;4.07;;;14.60;99.90;;;;;;5067698;28;20078;-71
2023/08/05 01:47:03;;;;;;;6.90;3.28;;;14.60;99.90;;;;;;5068118;28;20051;-71
2023/08/05 01:49:29;;;;;;;9.30;3.75;;;14.60;99.90;;;;;;5077100;28;20626;-72
2023/08/05 01:51:54;;;;;;;8.93;3.35;;;14.60;99.90;;;;;;5062457;28;20269;-72
2023/08/05 01:54:20;;;;;;;9.35;3.80;;;14.50;99.90;;;;;;5068064;28;20056;-71
2023/08/05 01:56:46;;;;;;;11.18;4.50;;;14.50;99.90;;;;;;5067813;28;20553;-71
2023/08/05 01:59:11;;;;;;;10.70;3.92;;;14.50;99.90;;;;;;5083616;28;20051;-71
2023/08/05 02:01:55;;;;;;;10.60;4.00;;;14.50;99.90;;;;;;5077735;28;20044;-71
2023/08/05 02:04:21;;;;;;;7.90;3.22;;;14.40;99.90;;;;;;5080173;28;20531;-70
2023/08/05 02:06:46;;;;;;;8.07;3.38;;;14.40;99.90;;;;;;5082211;28;20040;-71
2023/08/05 02:09:12;;;;;;;7.57;3.72;;;14.40;99.90;;;;;;5084666;28;20427;-71
2023/08/05 02:11:38;;;;;;;7.25;3.42;;;14.40;99.90;;;;;;5067902;28;20044;-72
2023/08/05 02:14:04;;;;;;;8.20;4.30;;;14.30;99.90;;;;;;5085980;28;20042;-71
2023/08/05 02:16:33;;;;;;;8.75;3.58;;;14.30;99.90;;;;;;5068036;28;20120;-71
2023/08/05 02:18:59;;;;;;;8.98;3.70;;;14.30;99.90;;;;;;5065734;28;20044;-71
2023/08/05 02:21:25;;;;;;;9.52;3.67;;;14.30;99.90;;;;;;5080138;28;20043;-71
2023/08/05 02:23:52;;;;;;;10.02;3.53;;;14.20;99.90;;;;;;5077280;28;20040;-71
2023/08/05 02:26:18;;;;;;;10.77;3.50;;;14.20;99.90;;;;;;5061659;28;20075;-70
2023/08/05 02:28:46;;;;;;;7.82;3.50;;;14.20;99.90;;;;;;5097163;28;20777;-71
2023/08/05 02:31:12;;;;;;;9.70;3.83;;;14.10;99.90;;;;;;5067585;28;20459;-70
2023/08/05 02:33:38;;;;;;;9.35;4.45;;;14.10;99.90;;;;;;5084235;28;20090;-71
2023/08/05 02:36:05;;;;;;;8.07;3.92;;;14.00;99.90;;;;;;5084344;28;20048;-71
2023/08/05 02:38:30;;;;;;;11.15;4.18;;;14.10;99.90;;;;;;5085289;28;20044;-72
2023/08/05 02:40:58;;;;;;;8.40;3.80;;;14.00;99.90;;;;;;5084629;28;20077;-71
2023/08/05 02:43:24;;;;;;;8.23;4.20;;;13.90;99.90;;;;;;5087755;28;20044;-71
2023/08/05 02:45:56;;;;;;;8.77;4.20;;;14.00;99.90;;;;;;5089381;28;20435;-72
2023/08/05 02:48:26;;;;;;;8.73;4.40;;;13.90;99.90;;;;;;5087464;28;20052;-71
2023/08/05 02:50:53;;;;;;;7.07;4.13;;;13.90;99.90;;;;;;5069701;28;20078;-71
2023/08/05 02:53:20;;;;;;;8.38;4.05;;;13.90;99.90;;;;;;5060655;28;20036;-71
2023/08/05 02:55:46;;;;;;;10.25;3.90;;;13.80;99.90;;;;;;5082978;28;20047;-71
2023/08/05 02:58:14;;;;;;;9.65;5.03;;;13.80;99.90;;;;;;5070891;28;20105;-71
2023/08/05 03:00:40;;;;;;;8.73;4.32;;;13.80;99.90;;;;;;5088521;28;20136;-71
2023/08/05 03:03:08;;;;;;;11.35;5.28;;;13.80;99.90;;;;;;5087646;28;20572;-71
2023/08/05 03:05:34;;;;;;;8.90;4.63;;;13.80;99.90;;;;;;5087608;28;20115;-72
2023/08/05 03:08:00;;;;;;;10.32;5.40;;;13.80;99.90;;;;;;5086694;28;20051;-72
2023/08/05 03:10:26;;;;;;;9.82;5.10;;;13.80;99.90;;;;;;5070428;28;20128;-72
2023/08/05 03:12:52;;;;;;;11.93;4.82;;;13.80;99.90;;;;;;5088711;28;20096;-72
2023/08/05 03:15:17;;;;;;;10.70;5.13;;;13.70;99.90;;;;;;5084800;28;20066;-71
2023/08/05 03:17:43;;;;;;;9.98;4.50;;;13.70;99.90;;;;;;5066794;28;20058;-72
2023/08/05 03:20:30;;;;;;;8.00;4.70;;;13.70;99.90;;;;;;5070734;28;20082;-71
2023/08/05 03:22:56;;;;;;;12.18;5.15;;;13.70;99.90;;;;;;5082830;28;20122;-72
2023/08/05 03:25:25;;;;;;;7.75;4.82;;;13.70;99.90;;;;;;5085760;28;20131;-71
2023/08/05 03:27:51;;;;;;;10.30;5.18;;;13.70;99.90;;;;;;5086827;28;20052;-71
2023/08/05 03:30:18;;;;;;;9.98;4.80;;;13.70;99.90;;;;;;5083924;28;20044;-70
2023/08/05 03:32:46;;;;;;;11.43;4.90;;;13.80;99.90;;;;;;5085540;28;20048;-71
2023/08/05 03:35:12;;;;;;;9.95;5.55;;;13.80;99.90;;;;;;5087766;28;20052;-71
2023/08/05 03:37:38;;;;;;;9.50;5.18;;;13.70;99.90;;;;;;5069996;28;20043;-71
2023/08/05 03:40:05;;;;;;;10.73;5.18;;;13.70;99.90;;;;;;5088803;28;20108;-71
2023/08/05 03:42:30;;;;;;;11.35;5.15;;;13.80;99.90;;;;;;5081714;28;20043;-71
2023/08/05 03:44:56;;;;;;;12.15;5.45;;;13.70;99.90;;;;;;5087553;28;20032;-71
2023/08/05 03:47:22;;;;;;;13.70;5.07;;;13.80;99.90;;;;;;5088684;28;20431;-71
2023/08/05 03:49:48;;;;;;;12.57;5.35;;;13.80;99.90;;;;;;5086760;28;20036;-71
2023/08/05 03:52:14;;;;;;;9.57;5.25;;;13.80;99.90;;;;;;5069896;28;20040;-71
2023/08/05 03:54:41;;;;;;;10.73;5.05;;;13.80;99.90;;;;;;5086649;28;20462;-71
2023/08/05 03:57:09;;;;;;;11.82;5.50;;;13.80;99.90;;;;;;5088064;28;20036;-71
2023/08/05 03:59:36;;;;;;;14.38;5.85;;;13.80;99.90;;;;;;5070022;28;20050;-71
2023/08/05 04:02:02;;;;;;;12.30;5.70;;;13.80;99.90;;;;;;5069376;28;20036;-71
2023/08/05 04:04:29;;;;;;;14.07;5.35;;;13.80;99.90;;;;;;5078856;28;20139;-71
2023/08/05 04:06:54;;;;;;;12.00;4.97;;;13.80;99.90;;;;;;5086311;28;20064;-71
2023/08/05 04:09:21;;;;;;;11.38;4.90;;;13.80;99.90;;;;;;5085810;28;20156;-71
2023/08/05 04:11:49;;;;;;;9.73;4.72;;;13.80;99.90;;;;;;5087778;28;20451;-71
2023/08/05 04:14:20;;;;;;;9.85;4.18;;;13.80;99.90;;;;;;5082984;28;20052;-71
2023/08/05 04:16:47;;;;;;;10.32;4.30;;;13.80;99.90;;;;;;5068543;28;20485;-71
2023/08/05 04:19:15;;;;;;;10.70;4.47;;;13.80;99.90;;;;;;5086354;28;20047;-71
2023/08/05 04:21:46;;;;;;;14.63;4.13;;;13.80;99.90;;;;;;5086331;28;20076;-71
2023/08/05 04:24:13;;;;;;;9.02;4.53;;;13.80;99.90;;;;;;5065795;28;20855;-71
2023/08/05 04:26:40;;;;;;;13.52;5.28;;;13.80;99.90;;;;;;5069308;28;20047;-71
2023/08/05 04:29:06;;;;;;;11.15;5.65;;;13.80;99.90;;;;;;5084637;28;20886;-71
2023/08/05 04:31:32;;;;;;;13.63;5.07;;;13.80;99.90;;;;;;5063390;28;20637;-71
2023/08/05 04:33:58;;;;;;;9.23;4.55;;;13.80;99.90;;;;;;5086352;28;20044;-71
2023/08/05 04:36:24;;;;;;;10.65;4.72;;;13.80;99.90;;;;;;5085006;28;20040;-71
2023/08/05 04:38:49;;;;;;;10.30;4.78;;;13.80;99.90;;;;;;5085473;28;20548;-71
2023/08/05 04:41:15;;;;;;;8.80;4.47;;;13.80;99.90;;;;;;5087156;28;20040;-71
2023/08/05 04:43:41;;;;;;;11.18;4.55;;;13.80;99.90;;;;;;5084451;28;20067;-71
2023/08/05 04:46:07;;;;;;;9.13;4.70;;;13.80;99.90;;;;;;5068557;28;20137;-71
2023/08/05 04:48:32;;;;;;;12.80;4.70;;;13.90;99.90;;;;;;5066394;28;20043;-72
2023/08/05 04:50:59;;;;;;;8.15;4.22;;;13.90;99.90;;;;;;5081649;28;20044;-72
2023/08/05 04:53:25;;;;;;;14.23;5.65;;;13.90;99.90;;;;;;5085635;28;20152;-72
2023/08/05 04:55:50;;;;;;;16.95;5.20;;;13.90;99.90;;;;;;5067915;28;20079;-72
2023/08/05 04:58:16;;;;;;;11.55;4.65;;;13.90;99.90;;;;;;5086301;28;20051;-72
2023/08/05 05:00:42;;;;;;;9.60;4.45;;;13.90;99.90;;;;;;5077152;28;20048;-72
2023/08/05 05:03:07;;;;;;;10.82;4.50;;;13.90;99.90;;;;;;5064031;28;20052;-70
2023/08/05 05:05:38;;;;;;;9.25;4.63;;;13.90;99.90;;;;;;5085218;28;20115;-70
2023/08/05 05:08:04;;;;;;;12.23;4.97;;;14.00;99.90;;;;;;5085343;28;20973;-70
2023/08/05 05:10:29;;;;;;;10.30;4.72;;;14.00;99.90;;;;;;5084960;28;20040;-71
2023/08/05 05:12:57;;;;;;;9.18;4.32;;;14.00;99.90;;;;;;5086473;28;20166;-71
2023/08/05 05:15:23;;;;;;;10.85;4.50;;;14.10;99.90;;;;;;5086483;28;20733;-71
2023/08/05 05:17:50;;;;;;;11.98;5.03;;;14.10;99.90;;;;;;5068002;28;20131;-71
2023/08/05 05:20:16;;;;;;;11.25;4.28;;;14.20;99.90;;;;;;5063913;28;20505;-71
2023/08/05 05:22:42;;;;;;;9.98;5.35;;;14.20;99.90;;;;;;5078669;28;20444;-72
2023/08/05 05:25:08;;;;;;;13.63;5.22;;;14.30;99.90;;;;;;5086798;28;20121;-71
2023/08/05 05:27:34;;;;;;;9.68;4.22;;;14.50;99.90;;;;;;5085512;28;20036;-71
2023/08/05 05:30:01;;;;;;;7.97;4.63;;;14.80;99.90;;;;;;5082592;28;20047;-71
2023/08/05 05:32:27;;;;;;;7.75;4.13;;;15.00;99.90;;;;;;5084976;28;20062;-71
2023/08/05 05:34:53;;;;;;;11.38;4.43;;;15.00;99.90;;;;;;5085521;28;20111;-71
2023/08/05 05:37:18;;;;;;;9.77;4.28;;;15.00;99.90;;;;;;5086055;28;20040;-71
2023/08/05 05:39:44;;;;;;;10.55;4.20;;;15.00;99.90;;;;;;5067776;28;20540;-71
2023/08/05 05:42:10;;;;;;;13.27;4.25;;;15.00;99.90;;;;;;5086220;28;20052;-71
2023/08/05 05:44:38;;;;;;;8.57;3.90;;;14.90;99.90;;;;;;5068515;28;20112;-72
2023/08/05 05:47:07;;;;;;;9.23;3.55;;;14.90;99.90;;;;;;5061424;28;20048;-72
2023/08/05 05:49:33;;;;;;;12.05;4.25;;;14.90;99.90;;;;;;5082654;28;20119;-72
2023/08/05 05:51:59;;;;;;;9.43;3.35;;;14.90;99.90;;;;;;5085048;28;20044;-71
2023/08/05 05:54:25;;;;;;;9.48;3.90;;;14.90;99.90;;;;;;5084261;28;20051;-71
2023/08/05 05:56:51;;;;;;;7.60;3.47;;;14.80;99.90;;;;;;5081237;28;20044;-71
2023/08/05 05:59:16;;;;;;;9.93;3.75;;;14.90;99.90;;;;;;5079636;28;20083;-71
2023/08/05 06:01:42;;;;;;;7.30;2.92;;;15.00;99.90;;;;;;5077138;28;20119;-72
2023/08/05 06:04:09;;;;;;;7.93;2.63;;;15.20;99.90;;;;;;5078959;28;20043;-71
2023/08/05 06:06:36;;;;;;;7.45;2.65;;;15.20;99.90;;;;;;5084403;28;20105;-71
2023/08/05 06:09:03;;;;;;;9.40;2.50;;;15.20;99.90;;;;;;5067781;28;20108;-72
2023/08/05 06:11:32;;;;;;;9.48;2.70;;;15.30;99.90;;;;;;5084761;28;20047;-71
2023/08/05 06:13:58;;;;;;;14.63;3.08;;;15.30;99.90;;;;;;5067605;28;20082;-72
2023/08/05 06:16:23;;;;;;;8.07;2.28;;;15.30;99.90;;;;;;5077572;28;20080;-71
2023/08/05 06:18:49;;;;;;;7.95;2.50;;;15.30;99.90;;;;;;5081704;28;20091;-72
2023/08/05 06:21:15;;;;;;;7.30;2.45;;;15.30;99.90;;;;;;5063888;28;20048;-71
2023/08/05 06:23:40;;;;;;;10.23;2.30;;;15.40;99.90;;;;;;5081042;28;20044;-71
2023/08/05 06:26:06;;;;;;;6.95;2.35;;;15.40;99.90;;;;;;5083949;28;20118;-71
2023/08/05 06:28:32;;;;;;;8.45;2.00;;;15.40;99.90;;;;;;5083435;28;20044;-71
2023/08/05 06:30:58;;;;;;;5.05;2.13;;;15.40;99.90;;;;;;5084275;28;20117;-71
2023/08/05 06:33:23;;;;;;;8.75;2.05;;;15.50;99.90;;;;;;5081114;28;20048;-71
2023/08/05 06:35:49;;;;;;;6.03;2.45;;;15.50;99.90;;;;;;5085641;28;20044;-71
2023/08/05 06:38:15;;;;;;;9.57;2.40;;;15.50;99.90;;;;;;5079141;28;20044;-71
2023/08/05 06:40:41;;;;;;;5.30;2.17;;;15.50;99.90;;;;;;5080940;28;20044;-71
2023/08/05 06:43:07;;;;;;;5.97;2.40;;;15.60;99.90;;;;;;5076735;28;20127;-71
2023/08/05 06:45:32;;;;;;;7.43;2.78;;;15.60;99.90;;;;;;5075207;28;20066;-72
2023/08/05 06:47:58;;;;;;;6.22;2.40;;;15.60;99.90;;;;;;5089827;28;20055;-72
2023/08/05 06:50:24;;;;;;;6.50;2.30;;;15.70;99.90;;;;;;5051700;28;20055;-72
2023/08/05 06:52:50;;;;;;;7.60;2.17;;;15.70;99.90;;;;;;5075192;28;20047;-72
2023/08/05 06:55:18;;;;;;;6.60;2.40;;;15.80;99.90;;;;;;5073383;28;20058;-72
2023/08/05 06:57:48;;;;;;;6.47;2.08;;;15.90;99.90;;;;;;5073391;28;20043;-71
2023/08/05 07:00:14;;;;;;;7.65;2.25;;;16.00;99.90;;;;;;5073079;28;20143;-71
2023/08/05 07:02:40;;;;;;;5.18;2.10;;;16.10;99.90;;;;;;5072802;28;20040;-72
2023/08/05 07:05:06;;;;;;;5.95;2.00;;;16.10;99.90;;;;;;5072749;28;20397;-72
2023/08/05 07:07:32;;;;;;;5.07;1.98;;;16.10;99.90;;;;;;5072863;28;20043;-72
2023/08/05 07:10:03;;;;;;;5.57;1.77;;;16.20;99.90;;;;;;5074766;28;20048;-72
2023/08/05 07:12:29;;;;;;;8.32;2.22;;;16.20;99.90;;;;;;5081061;28;20052;-72
2023/08/05 07:14:54;;;;;;;7.43;2.35;;;16.20;99.90;;;;;;5060627;28;20062;-72
2023/08/05 07:17:20;;;;;;;5.65;2.15;;;16.30;99.90;;;;;;5085194;28;20052;-72
2023/08/05 07:19:46;;;;;;;7.78;2.35;;;16.20;99.90;;;;;;5080939;28;20048;-72
2023/08/05 07:22:12;;;;;;;6.95;2.33;;;16.30;99.90;;;;;;5074360;28;20648;-72
2023/08/05 07:24:38;;;;;;;7.93;2.05;;;16.30;99.90;;;;;;5065853;28;20036;-72
2023/08/05 07:27:04;;;;;;;4.88;1.90;;;16.30;99.90;;;;;;5086637;28;20044;-70
2023/08/05 07:29:30;;;;;;;6.18;1.88;;;16.30;99.90;;;;;;5081808;28;20055;-70
2023/08/05 07:31:55;;;;;;;8.35;2.30;;;16.30;99.90;;;;;;5086261;28;20044;-70
2023/08/05 07:34:22;;;;;;;4.90;1.98;;;16.40;99.90;;;;;;5070000;28;20690;-70
2023/08/05 07:36:48;;;;;;;8.07;2.28;;;16.40;99.90;;;;;;5085129;28;20055;-69
2023/08/05 07:39:13;;;;;;;7.28;1.98;;;16.40;99.90;;;;;;5066584;28;20052;-69
2023/08/05 07:41:39;;;;;;;7.32;2.20;;;16.40;99.90;;;;;;5087660;28;20085;-69
2023/08/05 07:44:07;;;;;;;7.25;2.15;;;16.40;99.90;;;;;;5084464;28;20071;-70
2023/08/05 07:46:36;;;;;;;4.90;1.92;;;16.40;99.90;;;;;;5085215;28;20588;-72
2023/08/05 07:49:04;;;;;;;6.97;2.22;;;16.50;99.90;;;;;;5084646;28;20036;-72
2023/08/05 07:51:30;;;;;;;6.65;2.00;;;16.50;99.90;;;;;;5075263;28;21096;-72
2023/08/05 07:53:57;;;;;;;5.13;1.90;;;16.60;99.90;;;;;;5076974;28;20105;-71
2023/08/05 07:56:23;;;;;;;5.20;1.90;;;16.60;99.90;;;;;;5059318;28;20048;-71
2023/08/05 07:58:49;;;;;;;8.45;2.05;;;16.60;99.90;;;;;;5073720;28;20401;-71
2023/08/05 08:01:21;;;;;;;5.75;2.00;;;16.70;99.90;;;;;;5053376;28;20051;-72
2023/08/05 08:03:48;;;;;;;7.93;2.20;;;16.70;99.90;;;;;;5073868;28;20101;-71
2023/08/05 08:06:17;;;;;;;6.57;1.73;;;16.80;99.90;;;;;;5084249;28;20564;-71
2023/08/05 08:08:43;;;;;;;6.28;2.10;;;16.80;99.90;;;;;;5079540;28;20043;-70
2023/08/05 08:11:12;;;;;;;5.78;1.88;;;16.80;99.90;;;;;;5083291;28;20082;-72
2023/08/05 08:13:39;;;;;;;5.93;2.08;;;16.80;99.90;;;;;;5083521;28;20533;-71
2023/08/05 08:16:05;;;;;;;5.32;2.10;;;16.90;99.90;;;;;;5064524;28;20127;-71
2023/08/05 08:18:32;;;;;;;5.97;2.15;;;16.90;99.90;;;;;;5080130;28;20052;-71
2023/08/05 08:20:58;;;;;;;5.85;1.92;;;16.90;99.90;;;;;;5079417;28;20119;-71
2023/08/05 08:23:24;;;;;;;5.53;2.10;;;17.00;99.90;;;;;;5079780;28;20052;-72
2023/08/05 08:25:50;;;;;;;6.40;2.33;;;17.00;99.90;;;;;;5065813;28;20618;-71
2023/08/05 08:28:16;;;;;;;6.07;2.22;;;17.10;99.90;;;;;;5078215;28;20047;-73
2023/08/05 08:30:56;;;;;;;6.57;2.30;;;17.20;99.90;;;;;;5077864;28;20054;-74
2023/08/05 08:33:22;;;;;;;7.15;2.72;;;17.30;99.90;;;;;;5082120;28;20078;-73
2023/08/05 08:35:49;;;;;;;7.90;2.47;;;17.40;99.90;;;;;;5079782;28;20083;-74
2023/08/05 08:38:15;;;;;;;6.07;2.22;;;17.50;99.90;;;;;;5084417;28;20090;-73
2023/08/05 08:40:49;;;;;;;5.13;1.88;;;17.60;99.90;;;;;;5079923;28;20040;-73
2023/08/05 08:43:19;;;;;;;5.45;1.92;;;17.70;99.90;;;;;;5061374;28;20075;-74
2023/08/05 08:45:48;;;;;;;6.23;2.23;;;17.80;99.90;;;;;;5082126;28;20374;-73
2023/08/05 08:48:17;;;;;;;7.22;2.10;;;18.00;99.90;;;;;;5075951;28;21859;-73
2023/08/05 08:50:44;;;;;;;7.60;1.85;;;18.20;99.90;;;;;;5083917;28;20143;-73
2023/08/05 08:53:13;;;;;;;6.43;2.20;;;18.30;99.90;;;;;;5078541;28;20052;-74
2023/08/05 08:55:42;;;;;;;6.32;1.83;;;18.30;99.90;;;;;;5074080;28;20036;-73
2023/08/05 08:58:08;;;;;;;4.55;1.77;;;18.40;99.90;;;;;;5085893;28;20040;-72
2023/08/05 09:00:35;;;;;;;7.10;2.17;;;18.50;99.90;;;;;;5075986;28;20562;-74
2023/08/05 09:03:01;;;;;;;6.80;1.92;;;18.50;99.90;;;;;;5060261;28;20060;-74
2023/08/05 09:05:39;;;;;;;6.97;2.13;;;18.40;99.90;;;;;;5059101;28;20048;-74
2023/08/05 09:08:05;;;;;;;5.45;1.88;;;18.40;99.90;;;;;;5057278;28;20047;-75
2023/08/05 09:10:30;;;;;;;5.25;1.85;;;18.40;99.90;;;;;;5076877;28;20044;-73
2023/08/05 09:13:00;;;;;;;5.75;1.80;;;18.40;99.90;;;;;;5076376;28;20040;-74
2023/08/05 09:15:36;;;;;;;5.25;1.75;;;18.50;99.90;;;;;;5063363;28;20169;-74
2023/08/05 09:18:04;;;;;;;5.20;1.83;;;18.40;99.90;;;;;;5077528;28;20050;-74
2023/08/05 09:20:34;;;;;;;7.13;2.30;;;18.50;99.90;;;;;;5055342;28;20059;-74
2023/08/05 09:23:02;;;;;;;7.30;2.00;;;18.50;99.90;;;;;;5074255;28;20463;-73
2023/08/05 09:25:32;;;;;;;4.85;1.77;;;18.60;99.90;;;;;;5071924;28;20264;-74
2023/08/05 09:28:00;;;;;;;5.03;1.75;;;18.70;99.90;;;;;;5068489;28;20036;-74
2023/08/05 09:30:27;;;;;;;4.07;1.83;;;18.80;99.90;;;;;;5074019;28;20127;-74
2023/08/05 09:32:56;;;;;;;4.47;1.70;;;18.90;99.90;;;;;;5054777;28;20076;-74
2023/08/05 09:35:23;;;;;;;6.78;1.73;;;18.90;99.90;;;;;;5068795;28;20044;-72
2023/08/05 09:37:52;;;;;;;5.07;1.80;;;18.90;99.90;;;;;;5066950;28;20056;-72
2023/08/05 09:40:26;;;;;;;7.43;1.60;;;18.80;99.90;;;;;;5073033;28;20063;-71
2023/08/05 09:43:00;;;;;;;5.10;1.60;;;18.90;99.90;;;;;;5076232;28;20044;-71
2023/08/05 09:45:28;;;;;;;5.00;1.77;;;18.90;99.90;;;;;;5081063;28;20819;-73
2023/08/05 09:48:03;;;;;;;4.88;1.60;;;19.00;99.90;;;;;;5056680;28;20056;-72
2023/08/05 09:50:37;;;;;;;4.70;1.67;;;19.10;99.90;;;;;;5060601;28;20381;-73
2023/08/05 09:53:06;;;;;;;4.68;2.05;;;19.10;99.90;;;;;;5064772;28;20052;-73
2023/08/05 09:55:33;;;;;;;5.28;1.70;;;19.10;99.90;;;;;;5086729;28;20396;-73
2023/08/05 09:57:59;;;;;;;5.85;1.73;;;19.20;99.90;;;;;;5076052;28;20051;-73
2023/08/05 10:00:25;;;;;;;3.83;1.40;;;19.20;99.90;;;;;;5078021;28;20051;-73
2023/08/05 10:02:51;;;;;;;3.97;1.60;;;19.20;99.90;;;;;;5066130;28;20389;-73
2023/08/05 10:05:17;;;;;;;6.13;1.48;;;19.20;99.90;;;;;;5082451;28;20385;-71
2023/08/05 10:07:43;;;;;;;5.30;1.60;;;19.20;99.90;;;;;;5072540;28;20063;-72
2023/08/05 10:10:11;;;;;;;5.38;1.38;;;19.30;99.90;;;;;;5064257;28;20074;-71
2023/08/05 10:12:50;;;;;;;6.00;1.52;;;19.40;99.90;;;;;;5071278;28;20355;-76
2023/08/05 10:15:29;;;;;;;5.10;1.73;;;19.40;99.90;;;;;;5077310;28;20551;-75
2023/08/05 10:17:56;;;;;;;4.43;1.52;;;19.50;99.90;;;;;;5067660;28;20042;-71
2023/08/05 10:20:22;;;;;;;5.47;1.50;;;19.50;99.90;;;;;;5081906;28;20049;-71
2023/08/05 10:23:06;;;;;;;3.90;1.40;;;19.60;99.90;;;;;;5075645;28;20048;-71
2023/08/05 10:25:46;;;;;;;4.70;1.73;;;19.60;99.90;;;;;;5079516;28;20095;-71
2023/08/05 10:28:27;;;;;;;4.10;1.50;;;19.50;99.90;;;;;;5081405;28;20449;-71
2023/08/05 10:30:54;;;;;;;;;;;19.50;99.90;;;;;;5083802;28;20509;-70
2023/08/05 10:33:21;;;;;;;3.83;1.40;;;19.50;99.90;;;;;;5081193;28;19924;-75
2023/08/05 10:35:49;;;;;;;6.05;1.65;;;19.50;99.90;;;;;;5087663;28;20044;-75
2023/08/05 10:38:19;;;;;;;5.05;1.63;;;19.50;99.90;;;;;;5087380;28;20032;-75
2023/08/05 10:40:55;;;;;;;7.15;1.98;;;19.60;99.90;;;;;;5082782;28;20040;-75
2023/08/05 10:43:31;;;;;;;8.93;1.77;;;19.70;99.90;;;;;;5084398;28;20393;-75
2023/08/05 10:46:17;;;;;;;5.80;1.60;;;19.80;99.90;;;;;;5069567;28;20059;-75
2023/08/05 10:48:44;;;;;;;6.50;1.80;;;19.90;99.90;;;;;;5068209;28;20123;-71
2023/08/05 10:51:16;;;;;;;9.20;1.85;;;20.00;99.90;;;;;;5085073;28;20044;-70
2023/08/05 10:54:00;;;;;;;4.70;1.85;;;20.20;99.90;;;;;;5068442;28;20404;-71
2023/08/05 10:56:33;;;;;;;8.75;2.25;;;20.20;99.90;;;;;;5069092;28;20044;-71
2023/08/05 10:59:01;;;;;;;5.85;1.65;;;20.20;99.90;;;;;;5084493;28;20075;-71
2023/08/05 11:01:53;;;;;;;6.35;1.50;;;20.10;99.90;;;;;;5083591;28;20044;-71
2023/08/05 11:04:31;;;;;;;8.25;2.35;;;20.10;99.90;;;;;;5087330;28;20067;-71
2023/08/05 11:07:03;;;;;;;6.72;1.80;;;20.10;99.90;;;;;;5086583;28;20036;-71
2023/08/05 11:09:35;;;;;;;5.35;1.63;;;20.20;99.90;;;;;;5084912;28;20048;-72
2023/08/05 11:12:01;;;;;;;7.05;1.73;;;20.30;99.90;;;;;;5088456;28;20618;-71
2023/08/05 11:14:27;;;;;;;5.57;1.70;;;20.20;99.90;;;;;;5087609;28;20036;-70
2023/08/05 11:17:00;;;;;;;5.40;1.63;;;20.20;99.90;;;;;;5088761;28;20048;-70
2023/08/05 11:19:26;;;;;;;3.97;1.50;;;20.20;99.90;;;;;;5081877;28;20131;-71
2023/08/05 11:21:52;;;;;;;4.35;1.73;;;20.20;99.90;;;;;;5085002;28;20161;-70
2023/08/05 11:24:18;;;;;;;5.60;1.95;;;20.20;99.90;;;;;;5084433;28;20553;-71
2023/08/05 11:26:46;;;;;;;6.57;2.05;;;20.20;99.90;;;;;;5070634;28;20056;-71
2023/08/05 11:29:13;;;;;;;4.93;1.60;;;20.20;99.90;;;;;;5068403;28;20055;-71
2023/08/05 11:31:49;;;;;;;4.65;2.00;;;20.20;99.90;;;;;;5086971;28;20433;-71
2023/08/05 11:34:22;;;;;;;6.78;2.10;;;20.20;99.90;;;;;;5087120;28;20063;-71
2023/08/05 11:36:57;;;;;;;5.60;2.00;;;20.20;99.90;;;;;;5086888;28;20059;-70
2023/08/05 11:39:23;;;;;;;6.68;1.50;;;20.20;99.90;;;;;;5087647;28;20051;-71
2023/08/05 11:41:50;;;;;;;4.90;1.70;;;20.20;99.90;;;;;;5085620;28;20035;-71
2023/08/05 11:44:17;;;;;;;5.15;1.90;;;20.20;99.90;;;;;;5088195;28;20036;-71
2023/08/05 11:46:43;;;;;;;4.82;2.10;;;20.20;99.90;;;;;;5086924;28;20068;-71
2023/08/05 11:49:10;;;;;;;5.95;1.92;;;20.20;99.90;;;;;;5087551;28;20153;-71
2023/08/05 11:51:47;;;;;;;3.88;1.70;;;20.20;99.90;;;;;;5070183;28;20127;-71
2023/08/05 11:54:22;;;;;;;7.55;1.95;;;20.20;99.90;;;;;;5085016;28;20508;-71
2023/08/05 11:56:48;;;;;;;4.35;2.00;;;20.20;99.90;;;;;;5064657;28;20126;-71
2023/08/05 11:59:14;;;;;;;5.35;1.70;;;20.20;99.90;;;;;;5087464;28;20119;-71
2023/08/05 12:01:40;;;;;;;3.90;1.60;;;20.20;99.90;;;;;;5084609;28;20503;-71
2023/08/05 12:04:07;;;;;;;4.40;1.65;;;20.20;99.90;;;;;;5082427;28;20082;-71
2023/08/05 12:06:33;;;;;;;4.20;1.88;;;20.20;99.90;;;;;;5065135;28;20044;-75
2023/08/05 12:08:59;;;;;;;5.53;2.10;;;20.20;99.90;;;;;;5080580;28;20102;-74
2023/08/05 12:11:25;;;;;;;6.70;2.17;;;20.10;99.90;;;;;;5085667;28;20143;-74
2023/08/05 12:13:51;;;;;;;3.70;1.70;;;20.10;99.90;;;;;;5086331;28;20089;-74
2023/08/05 12:16:17;;;;;;;5.97;2.10;;;20.10;99.90;;;;;;5086483;28;20498;-75
2023/08/05 12:18:44;;;;;;;13.25;2.60;;;20.10;99.90;;;;;;5081233;28;20122;-75
2023/08/05 12:21:10;;;;;;;3.88;1.90;;;20.00;99.90;;;;;;5087853;28;20108;-75
2023/08/05 12:23:40;;;;;;;6.57;2.53;;;20.00;99.90;;;;;;5086047;28;20569;-73
2023/08/05 12:26:07;;;;;;;5.85;2.70;;;20.00;99.90;;;;;;5069471;28;20044;-74
2023/08/05 12:28:33;;;;;;;6.05;2.42;;;19.90;99.90;;;;;;5079693;28;20048;-74
2023/08/05 12:30:58;;;;;;;6.10;2.38;;;19.90;99.90;;;;;;5068876;28;20047;-74
2023/08/05 12:33:24;;;;;;;5.20;2.25;;;19.80;99.90;;;;;;5068724;28;20091;-75
2023/08/05 12:35:59;;;;;;;7.18;2.60;;;19.80;99.90;;;;;;5059840;27;21080;-75
2023/08/05 12:38:24;;;;;;;5.57;2.70;;;19.80;99.90;;;;;;5060097;28;20623;-75
2023/08/05 12:40:50;;;;;;;5.30;2.45;;;19.80;99.90;;;;;;5045389;28;20084;-75
2023/08/05 12:43:16;;;;;;;5.55;2.63;;;19.80;99.90;;;;;;5061848;28;20045;-76
2023/08/05 12:45:42;;;;;;;6.32;2.70;;;19.80;99.90;;;;;;5062083;28;20409;-75
2023/08/05 12:48:08;;;;;;;5.85;2.67;;;19.80;99.90;;;;;;5045696;28;20055;-75